Huvudsida
METAR-TAF:

METAR-TAF

Flygplatser :

Gulkana, Alaska, USA

latitud: 62-09N, longitud: 145-27W, höjd: 481 m

Aktuellt väderrapport

Denna rapport gjordes för 46 minuter sedan, klockan 20:53 UTC
Stilla vind
Temperatur -26°C
Fuktighet 76%
Tryck 1004 hPa
Sikt: 16.1 km
Få moln på en höjd av 5500 ft
Brutna moln på en höjd av 7500 ft
Mulet på en höjd av 10000 ft

METAR: PAGK 192053Z AUTO 00000KT 10SM FEW055 BKN075 OVC100 M26/M29 A2964 RMK AO2 SLP119 T12561289 56001 TSNO

Tid: 12:39 (21:39 UTC)

Väderprognos

Denna rapport gjordes för 3 timmar och 57 minuter sedan, klockan 17:42 UTC
Prognos gäller från 19 kl. 18 UTC till 20 kl. 18 UTC
Vind 2 kt varierande vindriktning
Sikt: 10 km
Klar himmel
Från 20 kl. 1200 UTC
Vind 3 kt varierande vindriktning
Sikt: 10 km
Brutna moln på en höjd av 3500 ft
skurar i närheten

TAF: PAGK 191742Z 1918/2018 VRB02KT P6SM SKC FM201200 VRB03KT P6SM VCSH BKN035

Aktuella väderrapporter och prognoser från 4000 flygplatser (METAR- och TAF-rapporter).

De tillgängliga stationerna syns som gula och röda prickar på kartan.

För musen över prickarna för att se namnen på stationerna.

Klicka sedan för att få väderrapporter och prognoser.

För att ändra kartan: Klicka på de gröna knapparna med ett svart kors på för att zooma in; den gröna knappen med ett streck på för att zooma ut; eller på de gröna pilarna för angränsande kartor.


METAR-TAF: